Time;durP1;ratioP1;P1;durP2;ratioP2;P2;SDS_P1;SDS_P2;PMS_P1;PMS_P2;Temp;Humidity;BMP_temperature;BMP_pressure;BME280_temperature;BME280_humidity;BME280_pressure;Samples;Min_cycle;Max_cycle;Signal;HPM_P1;HPM_P2
2022/04/26 03:38:32;;;;;;;;;;;9.00;99.90;;;8.50;100.00;96782.59;5026821;28;19927;-63
2022/04/26 03:40:58;;;;;;;;;;;9.10;99.90;;;8.48;100.00;96777.41;5025077;28;19916;-63
2022/04/26 03:43:23;;;;;;;;;;;9.10;99.90;;;8.49;100.00;96779.13;5024852;28;20326;-63
2022/04/26 03:45:49;;;;;;;;;;;9.10;99.90;;;8.52;100.00;96786.88;5025081;28;19952;-63
2022/04/26 03:48:15;;;;;;;;;;;9.10;99.90;;;8.54;100.00;96777.19;5029436;28;19967;-63
2022/04/26 03:50:40;;;;;;;;;;;9.10;99.90;;;8.52;100.00;96775.50;5019781;28;20028;-63
2022/04/26 03:53:06;;;;;;;;;;;9.10;99.90;;;8.47;100.00;96773.09;5021570;28;20276;-63
2022/04/26 03:55:31;;;;;;;;;;;9.10;99.90;;;8.49;100.00;96779.13;5026685;28;20853;-63
2022/04/26 03:57:57;;;;;;;;;;;9.10;99.90;;;8.51;100.00;96781.69;5026225;28;19916;-63
2022/04/26 04:00:24;;;;;;;;;;;9.10;99.90;;;8.52;100.00;96780.75;5005859;28;20451;-63
2022/04/26 04:02:49;;;;;;;;;;;9.10;99.90;;;8.54;100.00;96786.81;5017779;28;20260;-63
2022/04/26 04:05:15;;;;;;;;;;;9.10;99.90;;;8.54;100.00;96792.94;5028053;28;19921;-63
2022/04/26 04:07:40;;;;;;;;;;;9.10;99.90;;;8.53;100.00;96807.00;5018243;28;19972;-63
2022/04/26 04:10:06;;;;;;;;;;;9.10;99.90;;;8.52;100.00;96804.41;5026335;28;19923;-63
2022/04/26 04:12:32;;;;;;;;;;;9.10;99.90;;;8.45;100.00;96795.91;5021015;28;19933;-62
2022/04/26 04:14:58;;;;;;;;;;;9.10;99.90;;;8.48;100.00;96806.31;5027171;28;19925;-62
2022/04/26 04:17:23;;;;;;;;;;;9.00;99.90;;;8.47;100.00;96806.38;5025216;28;19916;-62
2022/04/26 04:19:49;;;;;;;;;;;9.00;99.90;;;8.45;100.00;96808.19;5024827;28;20019;-62
2022/04/26 04:22:15;;;;;;;;;;;9.00;99.90;;;8.42;100.00;96817.06;5024373;28;20364;-62
2022/04/26 04:24:40;;;;;;;;;;;9.00;99.90;;;8.40;100.00;96821.50;5027626;28;19924;-62
2022/04/26 04:27:08;;;;;;;;;;;9.00;99.90;;;8.39;100.00;96817.97;5027000;28;19917;-62
2022/04/26 04:29:33;;;;;;;;;;;9.00;99.90;;;8.37;100.00;96819.81;5022838;28;19932;-62
2022/04/26 04:31:59;;;;;;;;;;;8.90;99.90;;;8.30;100.00;96806.97;5019144;28;19924;-62
2022/04/26 04:34:25;;;;;;;;;;;8.90;99.90;;;8.33;100.00;96817.38;5026339;28;19975;-62
2022/04/26 04:36:50;;;;;;;;;;;8.90;99.90;;;8.31;100.00;96821.81;5028009;28;19921;-62
2022/04/26 04:39:19;;;;;;;;;;;8.90;99.90;;;8.32;100.00;96827.00;5023459;28;20509;-62
2022/04/26 04:41:46;;;;;;;;;;;8.90;99.90;;;8.31;100.00;96829.69;5027559;28;19923;-62
2022/04/26 04:44:12;;;;;;;;;;;8.90;99.90;;;8.28;100.00;96829.81;5020855;28;19917;-63
2022/04/26 04:46:37;;;;;;;;;;;8.90;99.90;;;8.29;100.00;96823.63;5019503;28;19979;-63
2022/04/26 04:49:03;;;;;;;;;;;8.90;99.90;;;8.24;100.00;96823.81;5023860;28;19979;-63
2022/04/26 04:51:29;;;;;;;;;;;8.90;99.90;;;8.29;100.00;96815.75;5024469;28;19920;-62
2022/04/26 04:53:55;;;;;;;;;;;8.80;99.90;;;8.29;100.00;96815.75;5020741;28;19925;-62
2022/04/26 04:56:20;;;;;;;;;;;8.80;99.90;;;8.29;100.00;96818.38;5025470;28;19942;-62
2022/04/26 04:58:46;;;;;;;;;;;8.90;99.90;;;8.33;100.00;96817.38;5027405;28;20008;-62
2022/04/26 05:01:12;;;;;;;;;;;8.90;99.90;;;8.32;100.00;96813.88;5022869;28;19932;-62
2022/04/26 05:03:38;;;;;;;;;;;8.90;99.90;;;8.36;100.00;96819.88;5029776;28;20277;-62
2022/04/26 05:06:03;;;;;;;;;;;8.90;99.90;;;8.37;100.00;96827.69;5026442;28;19920;-64
2022/04/26 05:08:29;;;;;;;;;;;8.90;99.90;;;8.38;100.00;96820.66;5027925;28;19916;-62
2022/04/26 05:10:54;;;;;;;;;;;8.90;99.90;;;8.41;100.00;96820.56;5030864;28;20427;-62
2022/04/26 05:13:20;;;;;;;;;;;9.00;99.90;;;8.45;100.00;96821.34;5029769;28;19932;-63
2022/04/26 05:15:46;;;;;;;;;;;9.00;99.90;;;8.45;100.00;96816.94;5028569;28;19925;-63
2022/04/26 05:18:12;;;;;;;;;;;9.00;99.90;;;8.44;100.00;96828.38;5027518;28;19932;-63
2022/04/26 05:20:38;;;;;;;;;;;9.00;99.90;;;8.47;100.00;96822.13;5032494;28;19925;-62
2022/04/26 05:25:48;;;;;;;;;;;9.00;99.90;;;8.53;100.00;96821.91;5027953;28;20375;-62
2022/04/26 05:28:14;;;;;;;;;;;9.10;99.90;;;8.56;100.00;96809.50;5021106;28;20384;-62
2022/04/26 05:30:39;;;;;;;;;;;9.10;99.90;;;8.66;100.00;96815.25;5029996;28;20289;-63
2022/04/26 05:33:05;;;;;;;;;;;9.20;99.90;;;8.72;100.00;96828.19;5029887;28;19926;-63
2022/04/26 05:35:31;;;;;;;;;;;9.30;99.90;;;8.74;100.00;96825.47;5030159;28;20062;-63
2022/04/26 05:37:56;;;;;;;;;;;9.30;99.90;;;8.78;100.00;96827.94;5034006;28;19925;-62
2022/04/26 05:40:22;;;;;;;;;;;9.30;99.90;;;8.82;100.00;96836.56;5031333;28;19924;-62
2022/04/26 05:42:47;;;;;;;;;;;9.40;99.90;;;8.85;100.00;96838.22;5028931;28;20006;-62
2022/04/26 05:45:13;;;;;;;;;;;9.40;99.90;;;8.87;100.00;96834.59;5032239;28;20335;-62
2022/04/26 05:47:43;;;;;;;;;;;9.40;99.90;;;8.88;100.00;96838.97;5030004;28;19920;-62
2022/04/26 05:50:10;;;;;;;;;;;9.40;99.90;;;8.91;100.00;96849.34;5032912;28;19925;-62
2022/04/26 05:52:36;;;;;;;;;;;9.50;99.90;;;8.92;100.00;96848.44;5028975;28;19925;-62
2022/04/26 05:55:04;;;;;;;;;;;9.50;99.90;;;8.91;100.00;96837.97;5026729;28;19932;-62
2022/04/26 05:57:30;;;;;;;;;;;9.50;99.90;;;8.97;100.00;96843.84;5033039;28;20246;-62
2022/04/26 05:59:56;;;;;;;;;;;9.50;99.90;;;8.96;100.00;96843.91;5032016;28;19929;-62
2022/04/26 06:02:21;;;;;;;;;;;9.50;99.90;;;8.96;100.00;96843.91;5030593;28;19921;-62
2022/04/26 06:04:47;;;;;;;;;;;9.50;99.90;;;8.89;100.00;96839.81;5027445;28;20361;-62
2022/04/26 06:07:13;;;;;;;;;;;9.50;99.90;;;8.91;100.00;96844.09;5032701;28;20285;-62
2022/04/26 06:09:38;;;;;;;;;;;9.50;99.90;;;8.94;100.00;96846.59;5034560;28;20011;-62
2022/04/26 06:12:04;;;;;;;;;;;9.50;99.90;;;8.96;100.00;96855.28;5030995;28;19921;-62
2022/04/26 06:14:30;;;;;;;;;;;9.50;99.90;;;8.88;100.00;96836.34;5032810;28;19917;-62
2022/04/26 06:16:56;;;;;;;;;;;9.60;99.90;;;9.06;100.00;96857.53;5025794;28;19929;-62
2022/04/26 06:19:21;;;;;;;;;;;9.60;99.90;;;9.11;100.00;96860.84;5033026;28;19927;-62
2022/04/26 06:21:47;;;;;;;;;;;9.70;99.90;;;9.16;100.00;96858.91;5030310;28;20004;-62
2022/04/26 06:24:13;;;;;;;;;;;9.70;99.90;;;9.23;100.00;96864.78;5030274;28;19924;-62
2022/04/26 06:26:39;;;;;;;;;;;9.80;99.90;;;9.23;100.00;96868.25;5029356;28;19974;-63
2022/04/26 06:29:05;;;;;;;;;;;9.80;99.90;;;9.29;100.00;96867.16;5033330;28;20633;-63
2022/04/26 06:31:30;;;;;;;;;;;9.80;99.90;;;9.26;100.00;96860.25;5048691;22;19976;-52
2022/04/26 06:33:56;;;;;;;;;;;9.80;99.90;;;9.28;100.00;96865.47;5027322;28;19982;-50
2022/04/26 06:36:21;;;;;;;;;;;9.80;99.90;;;9.27;100.00;96869.84;5010697;28;19975;-51
2022/04/26 06:38:47;;;;;;;;;;;9.80;99.90;;;9.20;100.00;96863.13;5032464;28;19921;-51
2022/04/26 06:41:13;;;;;;;;;;;9.80;99.90;;;9.21;100.00;96870.09;5027500;28;20428;-49
2022/04/26 06:43:38;;;;;;;;;;;9.70;99.90;;;9.13;100.00;96862.53;5009251;28;19925;-49
2022/04/26 06:46:05;;;;;;;;;;;9.70;99.90;;;9.13;100.00;96873.06;5011177;28;19925;-52
2022/04/26 06:48:30;;;;;;;;;;;9.70;99.90;;;9.10;100.00;96870.53;4995187;28;19917;-52
2022/04/26 06:50:56;;;;;;;;;;;9.70;99.90;;;9.08;100.00;96875.00;5009974;28;19926;-52
2022/04/26 06:53:22;;;;;;;;;;;9.60;99.90;;;9.05;100.00;96861.13;5008655;28;19973;-51
2022/04/26 06:55:47;;;;;;;;;;;9.60;99.90;;;9.05;100.00;96866.38;5008689;28;21229;-53
2022/04/26 06:58:13;;;;;;;;;;;9.60;99.90;;;9.06;100.00;96871.56;5013193;28;19917;-49
2022/04/26 07:00:39;;;;;;;;;;;9.60;99.90;;;9.05;100.00;96877.75;5009857;28;20400;-48
2022/04/26 07:03:05;;;;;;;;;;;9.60;99.90;;;9.07;100.00;96882.94;5013931;28;20427;-51
2022/04/26 07:05:30;;;;;;;;;;;9.70;99.90;;;9.13;100.00;96882.69;5011041;28;20392;-52
2022/04/26 07:07:56;;;;;;;;;;;9.70;99.90;;;9.20;100.00;96883.31;5012370;28;20396;-49
2022/04/26 07:10:22;;;;;;;;;;;9.70;99.90;;;9.25;100.00;96871.69;5012147;28;19917;-53
2022/04/26 07:12:48;;;;;;;;;;;9.80;99.90;;;9.44;100.00;96884.09;5013201;28;19921;-49
2022/04/26 07:15:14;;;;;;;;;;;9.90;99.90;;;9.54;100.00;96877.53;5015348;28;20308;-53
2022/04/26 07:17:40;;;;;;;;;;;10.10;99.90;;;9.68;100.00;96875.19;5013147;28;19919;-52
2022/04/26 07:20:08;;;;;;;;;;;10.20;99.90;;;9.80;100.00;96875.59;5015313;28;20439;-50
2022/04/26 07:22:34;;;;;;;;;;;10.30;99.90;;;9.88;100.00;96874.34;5012825;28;19921;-50
2022/04/26 07:25:00;;;;;;;;;;;10.40;99.90;;;9.87;100.00;96864.75;5012155;28;19917;-49
2022/04/26 07:27:25;;;;;;;;;;;10.40;99.90;;;9.86;100.00;96846.38;5012720;28;19936;-51
2022/04/26 07:29:52;;;;;;;;;;;10.50;99.90;;;10.09;100.00;96854.13;4995242;28;19987;-49
2022/04/26 07:32:18;;;;;;;;;;;10.60;99.90;;;10.40;100.00;96850.16;5009203;28;19925;-52
2022/04/26 07:34:45;;;;;;;;;;;10.80;99.90;;;10.60;100.00;96849.25;5014572;28;19917;-52
2022/04/26 07:37:11;;;;;;;;;;;11.10;99.90;;;10.88;100.00;96842.72;5013053;28;20000;-49
2022/04/26 07:39:36;;;;;;;;;;;11.40;99.90;;;10.96;100.00;96855.53;5012683;28;20020;-52
2022/04/26 07:42:03;;;;;;;;;;;11.50;99.90;;;10.99;100.00;96858.88;5008805;28;20625;-50
2022/04/26 07:44:30;;;;;;;;;;;11.50;99.90;;;10.79;100.00;96873.00;5010838;28;19950;-51
2022/04/26 07:46:56;;;;;;;;;;;11.40;99.90;;;10.60;100.00;96866.88;5007539;28;20130;-53
2022/04/26 07:49:23;;;;;;;;;;;11.20;99.90;;;10.56;100.00;96860.03;5012838;28;19932;-52
2022/04/26 07:51:50;;;;;;;;;;;11.20;99.90;;;10.60;100.00;96862.44;5011179;28;19921;-52
2022/04/26 07:54:16;;;;;;;;;;;11.10;99.90;;;10.63;100.00;96870.22;4996104;28;20391;-52
2022/04/26 07:56:43;;;;;;;;;;;11.10;99.90;;;10.47;100.00;96867.41;5010541;28;19980;-51
2022/04/26 07:59:08;;;;;;;;;;;11.10;99.90;;;10.49;100.00;96873.47;5013552;28;20287;-53
2022/04/26 08:01:35;;;;;;;;;;;11.00;99.90;;;10.35;100.00;96877.66;5009311;28;19918;-53
2022/04/26 08:04:01;;;;;;;;;;;11.00;99.90;;;10.40;100.00;96889.72;5012166;28;19925;-51
2022/04/26 08:06:27;;;;;;;;;;;10.90;99.90;;;10.39;100.00;96898.56;5009762;28;20403;-52
2022/04/26 08:08:54;;;;;;;;;;;11.00;99.90;;;10.42;100.00;96908.94;5011296;28;19959;-52
2022/04/26 08:11:20;;;;;;;;;;;11.00;99.90;;;10.49;100.00;96907.75;5009131;28;19925;-50
2022/04/26 08:13:46;;;;;;;;;;;11.10;99.90;;;10.52;100.00;96906.78;5012210;28;19912;-53
2022/04/26 08:16:12;;;;;;;;;;;11.10;99.90;;;10.37;100.00;96918.81;5010810;28;20489;-51
2022/04/26 08:18:38;;;;;;;;;;;11.10;99.90;;;10.29;100.00;96924.41;5012982;28;19947;-51
2022/04/26 08:21:07;;;;;;;;;;;11.00;99.90;;;10.35;100.00;96933.84;5009433;28;20178;-53
2022/04/26 08:27:22;;;;;;;;;;;11.00;99.90;;;10.35;100.00;96933.00;5011845;28;20000;-51
2022/04/26 08:29:12;;;;;;;;;;;11.10;99.90;;;10.68;100.00;96939.44;5010529;28;19968;-51
2022/04/26 08:31:38;;;;;;;;;;;11.30;99.90;;;10.74;100.00;96940.09;5010714;28;19926;-50
2022/04/26 08:34:04;;;;;;;;;;;11.40;99.90;;;10.78;100.00;96947.78;5012292;28;19963;-50
2022/04/26 08:36:30;;;;;;;;;;;11.40;99.90;;;10.95;100.00;96943.56;5009951;28;20300;-49
2022/04/26 08:38:55;;;;;;;;;;;11.50;99.90;;;11.04;100.00;96956.31;5012500;28;19929;-49
2022/04/26 08:41:22;;;;;;;;;;;11.60;99.90;;;11.05;100.00;96955.38;5012732;28;19963;-50
2022/04/26 08:43:48;;;;;;;;;;;11.70;99.90;;;11.03;100.00;96947.53;5008859;28;19961;-49
2022/04/26 08:46:13;;;;;;;;;;;11.70;99.90;;;11.18;100.00;96953.91;5013043;28;20011;-53
2022/04/26 08:51:23;;;;;;;;;;;12.00;99.90;;;11.46;100.00;96957.88;5008891;28;19970;-53
2022/04/26 08:53:48;;;;;;;;;;;12.00;99.90;;;11.50;100.00;96956.78;4991455;28;20533;-53
2022/04/26 08:56:16;;;;;;;;;;;12.10;99.90;;;11.44;100.00;96965.84;5011781;28;19917;-52
2022/04/26 08:58:42;;;;;;;;;;;12.10;99.90;;;11.25;100.00;96963.25;5010315;28;19921;-49
2022/04/26 09:01:18;;;;;;;;;;;12.00;99.90;;;11.30;100.00;96967.44;5006703;28;20424;-51
2022/04/26 09:03:56;;;;;;;;;;;11.90;99.90;;;11.19;100.00;96976.69;5009979;28;19921;-50
2022/04/26 09:06:23;;;;;;;;;;;11.90;99.90;;;11.16;100.00;96976.88;5012830;28;19975;-51
2022/04/26 09:08:49;;;;;;;;;;;11.90;99.90;;;11.28;100.00;96957.78;5006926;28;19933;-53
2022/04/26 09:11:33;;;;;;;;;;;12.00;99.90;;;11.37;100.00;96967.06;5011398;28;19913;-49
2022/04/26 09:13:59;;;;;;;;;;;12.10;99.90;;;11.52;100.00;96973.44;5009774;28;20451;-56
2022/04/26 09:16:25;;;;;;;;;;;12.20;99.90;;;11.70;100.00;96979.63;5011044;28;19931;-52
2022/04/26 09:18:59;;;;;;;;;;;12.30;99.90;;;11.83;100.00;96979.88;5007605;28;19921;-52
2022/04/26 09:21:27;;;;;;;;;;;12.40;99.90;;;11.77;94.96;96985.44;5010143;28;20004;-51
2022/04/26 09:23:57;;;;;;;;;;;12.50;99.90;;;11.96;99.10;96985.44;5010665;28;19921;-51
2022/04/26 09:26:23;;;;;;;;;;;12.60;99.90;;;11.98;96.41;96979.13;5011092;28;20374;-54
2022/04/26 09:28:50;;;;;;;;;;;12.60;99.90;;;12.07;100.00;96992.84;5011880;28;19926;-53
2022/04/26 09:31:22;;;;;;;;;;;12.70;99.90;;;12.25;95.49;96997.22;5009514;28;19925;-53
2022/04/26 09:33:51;;;;;;;;;;;12.90;99.90;;;12.56;93.83;96988.59;5011570;28;19979;-52
2022/04/26 09:36:21;;;;;;;;;;;13.20;99.90;;;12.93;96.02;96999.03;4995287;28;19917;-51
2022/04/26 09:38:55;;;;;;;;;;;13.50;99.90;;;13.39;99.56;96991.31;5007556;28;20365;-53
2022/04/26 09:41:21;;;;;;;;;;;13.90;99.90;;;13.45;91.34;96990.97;4994379;28;19932;-53
2022/04/26 09:44:03;;;;;;;;;;;14.20;99.90;;;13.33;88.45;96999.56;5009889;28;19917;-53
2022/04/26 09:46:48;;;;;;;;;;;14.20;99.90;;;13.28;81.81;97002.44;5012575;28;20400;-53
2022/04/26 09:49:18;;;;;;;;;;;14.00;99.90;;;13.33;79.84;96996.91;5012677;28;19995;-53
2022/04/26 09:51:45;;;;;;;;;;;14.10;99.90;;;13.30;72.58;97008.53;5008628;28;19917;-53
2022/04/26 09:54:10;;;;;;;;;;;14.20;99.90;;;13.36;81.64;97002.06;5014570;28;19917;-51
2022/04/26 09:56:37;;;;;;;;;;;14.20;99.90;;;13.35;74.45;97000.34;4996816;28;19971;-50
2022/04/26 09:59:04;;;;;;;;;;;14.10;99.90;;;13.23;71.02;96993.06;5010919;28;20690;-54
2022/04/26 10:01:40;;;;;;;;;;;14.10;99.90;;;13.17;72.01;96997.75;5012129;28;19917;-49
2022/04/26 10:04:08;;;;;;;;;;;14.10;99.90;;;12.95;67.55;96999.81;4999056;28;20588;-51
2022/04/26 10:06:38;;;;;;;;;;;13.90;99.90;;;12.93;73.91;96993.75;5014986;28;19920;-52
2022/04/26 10:09:06;;;;;;;;;;;13.70;99.90;;;12.99;71.42;97001.34;5011513;28;19939;-53
2022/04/26 10:11:31;;;;;;;;;;;13.70;99.90;;;12.99;75.21;96993.41;5012606;28;20057;-52
2022/04/26 10:13:58;;;;;;;;;;;13.70;99.90;;;13.22;77.03;97007.22;5015416;28;19999;-53
2022/04/26 10:16:24;;;;;;;;;;;13.70;99.90;;;13.40;77.27;96998.28;4995971;28;20141;-54
2022/04/26 10:18:50;;;;;;;;;;;13.90;99.90;;;13.49;69.18;97000.44;4995331;28;19917;-49
2022/04/26 10:21:38;;;;;;;;;;;14.00;99.90;;;13.51;65.20;97008.31;5011985;28;19979;-52
2022/04/26 10:24:10;;;;;;;;;;;14.10;99.90;;;13.57;68.08;97002.69;4999003;28;20384;-52
2022/04/26 10:26:35;;;;;;;;;;;14.00;99.90;;;13.56;70.07;97004.47;5014747;28;20220;-50
2022/04/26 10:29:12;;;;;;;;;;;14.10;99.90;;;13.69;69.74;97003.78;5013217;28;20602;-52
2022/04/26 10:31:57;;;;;;;;;;;14.20;99.90;;;13.84;65.83;97002.09;5012491;28;19965;-52
2022/04/26 10:34:31;;;;;;;;;;;14.40;99.90;;;13.91;63.56;97003.44;5011758;28;20373;-52
2022/04/26 10:37:06;;;;;;;;;;;14.50;99.90;;;13.81;57.13;97007.56;5016244;28;19953;-54
2022/04/26 10:39:49;;;;;;;;;;;14.60;99.90;;;13.99;60.35;96997.72;4995532;28;19929;-51
2022/04/26 10:42:15;;;;;;;;;;;14.70;99.90;;;14.26;57.56;96996.09;5011001;28;19921;-53
2022/04/26 10:44:45;;;;;;;;;;;14.90;99.90;;;14.40;59.31;96995.31;5015265;28;19975;-54
2022/04/26 10:47:22;;;;;;;;;;;15.00;99.90;;;14.43;58.59;96995.13;5010945;28;19932;-54
2022/04/26 10:49:49;;;;;;;;;;;15.10;99.90;;;14.44;65.13;96995.97;5011894;28;19936;-53
2022/04/26 10:52:15;;;;;;;;;;;15.00;99.90;;;14.30;56.71;96996.78;5010439;28;20003;-53
2022/04/26 10:54:55;;;;;;;;;;;14.90;99.90;;;14.07;62.97;96995.47;5014068;28;19943;-54
2022/04/26 10:57:23;;;;;;;;;;;14.70;99.90;;;13.86;63.07;97000.19;5014006;28;19963;-54
2022/04/26 11:00:04;;;;;;;;;;;14.60;99.90;;;13.91;65.65;96999.00;5013395;28;19929;-53
2022/04/26 11:02:32;;;;;;;;;;;14.60;99.90;;;14.17;61.23;97004.59;5010783;28;19921;-54
2022/04/26 11:04:59;;;;;;;;;;;14.80;99.90;;;14.33;52.78;97000.09;5011466;28;20292;-53
2022/04/26 11:07:27;;;;;;;;;;;15.10;99.90;;;14.44;52.98;97003.94;5011782;28;20021;-53
2022/04/26 11:09:57;;;;;;;;;;;15.10;99.60;;;14.46;54.57;97004.69;5010186;28;19996;-54
2022/04/26 11:12:24;;;;;;;;;;;15.20;99.90;;;14.14;59.71;96978.28;5012602;28;19924;-52
2022/04/26 11:14:52;;;;;;;;;;;15.00;99.90;;;14.24;56.43;97015.72;5013285;28;19924;-53
2022/04/26 11:17:19;;;;;;;;;;;14.90;99.90;;;13.75;66.99;97016.72;5010553;28;19925;-52
2022/04/26 11:19:55;;;;;;;;;;;14.60;99.90;;;13.40;68.37;97018.63;4977715;28;20309;-54
2022/04/26 11:22:23;;;;;;;;;;;14.30;99.90;;;13.10;71.36;97028.13;5013302;28;19918;-53
2022/04/26 11:30:32;;;;;;;;;;;13.60;99.90;;;12.65;71.76;97044.59;5007100;28;20427;-53
2022/04/26 11:33:06;;;;;;;;;;;13.50;99.90;;;12.72;80.49;97035.41;5007308;28;19925;-51
2022/04/26 11:35:34;;;;;;;;;;;13.50;99.90;;;12.91;82.48;97048.56;5004535;28;20017;-54
2022/04/26 11:38:16;;;;;;;;;;;13.60;99.90;;;13.03;72.35;97053.22;5002330;28;20445;-55
2022/04/26 11:40:49;;;;;;;;;;;13.80;99.90;;;13.13;72.31;97053.56;5007512;28;19969;-54
2022/04/26 11:43:19;;;;;;;;;;;13.90;99.90;;;13.04;70.23;97057.56;5009335;28;19960;-56
2022/04/26 11:45:47;;;;;;;;;;;13.90;99.90;;;12.83;72.14;97045.44;4982254;28;20023;-56
2022/04/26 11:48:26;;;;;;;;;;;13.70;99.90;;;12.70;73.07;97046.06;5007395;28;20393;-54
2022/04/26 11:50:53;;;;;;;;;;;13.60;99.90;;;12.60;69.92;97044.84;5006258;28;19921;-55
2022/04/26 11:53:24;;;;;;;;;;;13.40;99.90;;;12.44;71.52;97055.34;5005328;28;19948;-55
2022/04/26 11:55:57;;;;;;;;;;;13.20;99.90;;;12.34;75.23;97046.13;5011666;28;19925;-55
2022/04/26 11:58:35;;;;;;;;;;;13.00;99.90;;;12.25;77.93;97054.53;5007880;28;19940;-56
2022/04/26 12:01:21;;;;;;;;;;;12.90;99.90;;;12.29;74.30;97059.59;5002144;28;21281;-55
2022/04/26 12:03:52;;;;;;;;;;;13.00;99.90;;;12.38;73.51;97051.22;4987733;28;19924;-55
2022/04/26 12:06:32;;;;;;;;;;;13.10;99.90;;;12.52;74.01;97061.06;5007138;28;19948;-56
2022/04/26 12:09:00;;;;;;;;;;;13.20;99.90;;;12.70;68.12;97061.94;5008750;28;19948;-56
2022/04/26 12:11:36;;;;;;;;;;;13.40;99.90;;;12.90;70.19;97065.34;5010461;28;20326;-54
2022/04/26 12:14:06;;;;;;;;;;;13.60;99.90;;;13.07;71.88;97072.44;5002651;28;19922;-55
2022/04/26 12:16:36;;;;;;;;;;;13.70;99.90;;;13.15;67.71;97070.22;5010043;28;20015;-55
2022/04/26 12:19:05;;;;;;;;;;;13.90;99.90;;;13.18;71.47;97076.22;5006158;28;19921;-56
2022/04/26 12:21:48;;;;;;;;;;;13.90;99.90;;;13.25;72.50;97075.91;5007167;28;20535;-56
2022/04/26 12:24:21;;;;;;;;;;;13.90;99.90;;;13.20;69.36;97085.88;5002105;28;19983;-56
2022/04/26 12:27:01;;;;;;;;;;;13.80;99.90;;;13.10;68.71;97080.19;5010535;28;19917;-57
2022/04/26 12:29:28;;;;;;;;;;;13.70;99.90;;;13.03;69.54;97090.28;5010255;28;19925;-56
2022/04/26 12:31:55;;;;;;;;;;;13.70;99.90;;;12.86;69.39;97085.81;5034267;23;19935;-48
2022/04/26 12:34:23;;;;;;;;;;;13.60;99.90;;;12.78;70.85;97086.22;5054958;28;20016;-46
2022/04/26 12:37:25;;;;;;;;;;;13.50;99.90;;;12.43;75.28;97079.19;5053226;28;19925;-45
2022/04/26 12:39:53;;;;;;;;;;;13.20;99.90;;;11.72;66.18;97103.69;5051609;28;20400;-47
2022/04/26 12:42:28;;;;;;;;;;;12.70;99.90;;;11.26;70.82;97106.63;5054149;28;19925;-50
2022/04/26 12:44:56;;;;;;;;;;;12.20;99.90;;;10.98;72.10;97122.81;5048218;28;19951;-51
2022/04/26 12:50:31;;;;;;;;;;;11.60;99.90;;;10.35;83.61;97099.91;5047426;28;19978;-49
2022/04/26 12:52:59;;;;;;;;;;;11.30;99.90;;;10.29;82.21;97123.88;5051786;28;20355;-46
2022/04/26 12:55:34;;;;;;;;;;;11.20;99.90;;;10.36;89.18;97125.38;5047064;28;19925;-49
2022/04/26 12:58:02;;;;;;;;;;;11.20;99.90;;;10.32;85.83;97131.69;5049846;28;19970;-48
2022/04/26 13:00:29;;;;;;;;;;;11.20;99.90;;;10.45;88.49;97134.69;5049544;28;19920;-46
2022/04/26 13:02:57;;;;;;;;;;;11.30;99.90;;;10.52;89.85;97146.69;5046667;28;20454;-51
2022/04/26 13:05:22;;;;;;;;;;;11.40;99.90;;;10.47;86.31;97141.59;5048812;28;19925;-49
2022/04/26 13:07:48;;;;;;;;;;;11.40;99.90;;;10.66;88.04;97138.22;5047450;28;19932;-46
2022/04/26 13:10:16;;;;;;;;;;;11.40;99.90;;;10.55;90.68;97099.13;5044521;28;19924;-48
2022/04/26 13:12:42;;;;;;;;;;;11.40;99.90;;;10.89;89.78;97140.75;5049867;28;20007;-46
2022/04/26 13:15:09;;;;;;;;;;;11.50;99.90;;;10.94;83.78;97142.34;5050630;28;19928;-48
2022/04/26 13:17:37;;;;;;;;;;;11.60;99.90;;;11.13;85.49;97132.72;5043158;28;19983;-46
2022/04/26 13:20:05;;;;;;;;;;;11.80;99.90;;;11.41;82.57;97136.75;5044706;28;20525;-45
2022/04/26 13:22:33;;;;;;;;;;;12.10;99.90;;;12.01;80.62;97148.16;5047574;28;19925;-49
2022/04/26 13:24:59;;;;;;;;;;;12.60;99.90;;;12.56;78.13;97144.66;5046269;28;19990;-48
2022/04/26 13:27:24;;;;;;;;;;;13.20;99.90;;;12.99;67.64;97146.94;5044715;28;19956;-47
2022/04/26 13:29:50;;;;;;;;;;;13.60;99.90;;;13.25;64.24;97136.81;5045748;28;19932;-47
2022/04/26 13:32:19;;;;;;;;;;;14.00;99.90;;;13.33;65.39;97150.53;5053028;28;19924;-46
2022/04/26 13:34:45;;;;;;;;;;;14.00;99.90;;;13.29;63.69;97144.50;5049763;28;20335;-44
2022/04/26 13:37:11;;;;;;;;;;;14.00;99.90;;;13.28;65.84;97134.00;5052904;28;19966;-48
2022/04/26 13:39:43;;;;;;;;;;;14.00;99.90;;;13.36;63.51;97129.19;5050722;28;19964;-48
2022/04/26 13:42:10;;;;;;;;;;;14.10;99.90;;;13.50;64.23;97139.91;5049778;28;20299;-45
2022/04/26 13:44:35;;;;;;;;;;;14.20;99.90;;;13.30;59.33;97135.63;5049240;28;19917;-47
2022/04/26 13:47:03;;;;;;;;;;;14.20;99.90;;;13.32;62.50;97132.94;5051172;28;19924;-45
2022/04/26 13:49:29;;;;;;;;;;;14.10;99.90;;;13.20;64.15;97134.41;5047329;28;19928;-47
2022/04/26 13:51:55;;;;;;;;;;;14.00;99.90;;;13.03;66.00;97139.69;5045288;28;19931;-46
2022/04/26 13:54:21;;;;;;;;;;;13.80;99.90;;;12.89;62.13;97130.66;5051768;28;20151;-47
2022/04/26 13:56:49;;;;;;;;;;;13.60;99.90;;;12.89;61.84;97148.34;5050397;28;20575;-46
2022/04/26 13:59:15;;;;;;;;;;;13.60;99.90;;;12.58;57.71;97136.66;5052498;28;19989;-50
2022/04/26 14:01:41;;;;;;;;;;;13.40;99.90;;;12.67;60.96;97146.78;5047383;28;19997;-47
2022/04/26 14:04:07;;;;;;;;;;;13.40;99.90;;;12.72;59.12;97144.75;5046362;28;20396;-47
2022/04/26 14:06:32;;;;;;;;;;;13.50;99.90;;;12.65;60.11;97135.41;5050218;28;19924;-48
2022/04/26 14:08:58;;;;;;;;;;;13.50;99.90;;;12.64;58.77;97146.91;5043925;28;19921;-47
2022/04/26 14:11:24;;;;;;;;;;;13.50;99.90;;;12.49;57.01;97153.81;5049939;28;20350;-47
2022/04/26 14:22:03;;;;;;;;;;;13.40;99.90;;;12.90;62.09;97144.75;5048227;28;20434;-47
2022/04/26 14:24:28;;;;;;;;;;;13.50;99.90;;;13.04;62.05;97147.56;5051060;28;19916;-48
2022/04/26 14:26:54;;;;;;;;;;;13.70;99.90;;;13.04;57.68;97144.91;5050970;28;19933;-48
2022/04/26 14:29:19;;;;;;;;;;;13.80;99.90;;;13.25;61.30;97129.72;5044740;28;19959;-48
2022/04/26 14:31:45;;;;;;;;;;;14.10;99.90;;;13.43;59.34;97146.47;5042518;28;20566;-47
2022/04/26 14:34:11;;;;;;;;;;;14.20;99.90;;;13.41;59.98;97143.06;5051860;28;20198;-50
2022/04/26 14:36:37;;;;;;;;;;;14.10;99.90;;;13.40;64.79;97143.13;5043169;28;20398;-45
2022/04/26 14:39:03;;;;;;;;;;;14.00;99.90;;;13.64;62.06;97148.91;5040997;28;19991;-48
2022/04/26 14:41:29;;;;;;;;;;;14.30;99.90;;;14.00;61.30;97150.50;5048390;28;19913;-50
2022/04/26 14:43:55;;;;;;;;;;;14.60;99.90;;;14.15;59.42;97148.84;5046138;28;19920;-47
2022/04/26 14:46:20;;;;;;;;;;;14.80;99.90;;;13.86;57.34;97146.84;5048979;28;20015;-47
2022/04/26 14:48:46;;;;;;;;;;;14.70;99.90;;;13.92;58.98;97135.88;5042626;28;20274;-48
2022/04/26 14:51:12;;;;;;;;;;;14.60;99.90;;;14.02;57.67;97152.16;5047785;28;19960;-49
2022/04/26 14:53:38;;;;;;;;;;;14.60;99.90;;;13.94;55.13;97141.09;5039597;28;19925;-48
2022/04/26 14:56:05;;;;;;;;;;;14.70;99.70;;;14.18;57.67;97146.88;5028559;28;20288;-48
2022/04/26 14:58:31;;;;;;;;;;;14.80;99.90;;;14.31;55.42;97153.19;5034920;28;19968;-50
2022/04/26 15:00:57;;;;;;;;;;;15.10;99.90;;;14.41;56.62;97153.56;5035238;28;20892;-47
2022/04/26 15:03:23;;;;;;;;;;;15.10;99.90;;;14.40;54.33;97154.47;5037690;28;20011;-47
2022/04/26 15:05:49;;;;;;;;;;;15.10;98.80;;;14.36;55.44;97158.25;5037939;28;20447;-49
2022/04/26 15:10:58;;;;;;;;;;;15.00;99.90;;;14.31;57.56;97157.66;5041727;28;20015;-48
2022/04/26 15:18:52;;;;;;;;;;;14.30;99.10;;;13.13;57.73;97151.53;5049956;28;19994;-48
2022/04/26 15:21:18;;;;;;;;;;;13.90;99.90;;;12.90;59.54;97155.34;5047444;28;19920;-47
2022/04/26 15:23:44;;;;;;;;;;;13.60;99.90;;;12.65;62.22;97153.06;5048328;28;19975;-46
2022/04/26 15:26:11;;;;;;;;;;;13.30;99.90;;;12.44;64.56;97165.56;5048004;28;19921;-47
2022/04/26 15:28:37;;;;;;;;;;;13.00;99.90;;;12.19;67.35;97154.34;5051060;28;19920;-51
2022/04/26 15:31:03;;;;;;;;;;;12.80;99.90;;;11.93;69.75;97152.91;5048932;28;19986;-48
2022/04/26 15:33:29;;;;;;;;;;;12.60;99.90;;;11.89;71.09;97164.53;5048401;28;20367;-49